Washington, DC (20553)

8:59 AM EST on January 26, 2015 (GMT -0500)
DCNet Hoover Building Washington DC | Change Station
CLOSE
Current Station
Personal Weather Station
Location: Washington, DC
Elevation: 231 ft
Nearby Weather Stations
Active Advisory: Winter Weather Advisory Active Notice: Public Information Statement

Elev 231 ft 38.89 °N, 77.03 °W | Updated 29 minutes ago

Light Snow
Light Snow
35 °F
Feels Like 27 °F
N
10
Wind Variable Wind from ENE
Gusts 0.0 mph

Today
High -- | Low -- °F
--% Chance of Precip.
Yesterday
High -- | Low -- °F
Precip. -- in
7:19 AM 5:22 PM
Waxing Crescent, 43% visible
Pressure 29.80 in
Visibility 4.0 miles
Clouds Overcast 1100 ft
Windchill 27 °F
Dew Point 32 °F
Humidity 91%
Rainfall -999.00 in
Snow Depth Not available.
UV 0 out of 12
Pollen .30 out of 12
Air Quality Not available.
Flu Activity Not available.
METAR KDCA 261352Z 05011KT 4SM -SN OVC011 03/M01 A2980 RMK AO2 RAE43 SLP090 P0001 T00281006

More Conditions Fewer Conditions

Pressure 29.80 in
Visibility 4.0 miles
Clouds Overcast 1100 ft
Windchill 27 °F
Dew Point 32 °F
Humidity 91%
Rainfall -999.00 in
Snow Depth Not available.
UV 0 out of 12
Pollen .30 out of 12
Air Quality Not available.
Flu Activity Not available.
METAR KDCA 261352Z 05011KT 4SM -SN OVC011 03/M01 A2980 RMK AO2 RAE43 SLP090 P0001 T00281006

More Conditions Fewer Conditions

10-Day Weather Forecast

Almanac

Astronomy

Jan. 26, 2015 Rise Set
Actual Time
Civil Twilight
Nautical Twilight
Astronomical Twilight
Moon
Length of Visible Light
Length of Day
Tomorrow will be .
, % of the Moon is Illuminated

Today's Extremes

State Highs State Lows

Community

WunderPhotos

Upload Photos

1,790,200 photos uploaded!

WunderBlogs® & News

Nearby

Air Quality

  Air Quality AQ Index Pollutant
Not available.

Snow Depth

Station Depth Elevation

Earthquake Activity

City Distance Mag. Time & Date
Minimum magnitude displayed is 2.5.

Coastal Water Temperatures

Place Temperature

Nearby Weather Stations